sensor_id;sensor_type;location;lat;lon;timestamp;P1;durP1;ratioP1;P2;durP2;ratioP2
85301;SDS011;75707;46.948;7.410;2024-03-02T00:00:51;6.199999809;;;5.599999905;;
85301;SDS011;75707;46.948;7.410;2024-03-02T00:01:52;6.400000095;;;5.300000191;;
85301;SDS011;75707;46.948;7.410;2024-03-02T00:02:53;6.199999809;;;5.599999905;;
85301;SDS011;75707;46.948;7.410;2024-03-02T00:03:54;5.800000191;;;5.300000191;;
85301;SDS011;75707;46.948;7.410;2024-03-02T00:04:55;6.800000191;;;5.099999905;;
85301;SDS011;75707;46.948;7.410;2024-03-02T00:05:55;5.900000095;;;5.400000095;;
85301;SDS011;75707;46.948;7.410;2024-03-02T00:06:56;7.300000191;;;5.400000095;;
85301;SDS011;75707;46.948;7.410;2024-03-02T00:07:57;5.900000095;;;4.900000095;;
85301;SDS011;75707;46.948;7.410;2024-03-02T00:08:58;6.099999905;;;5.400000095;;
85301;SDS011;75707;46.948;7.410;2024-03-02T00:09:59;5.699999809;;;5.199999809;;
85301;SDS011;75707;46.948;7.410;2024-03-02T00:11:00;5.599999905;;;4.900000095;;
85301;SDS011;75707;46.948;7.410;2024-03-02T00:12:00;5.800000191;;;5.199999809;;
85301;SDS011;75707;46.948;7.410;2024-03-02T00:13:00;5.900000095;;;5.099999905;;
85301;SDS011;75707;46.948;7.410;2024-03-02T00:14:01;6.599999905;;;5;;
85301;SDS011;75707;46.948;7.410;2024-03-02T00:15:02;5.800000191;;;5.300000191;;
85301;SDS011;75707;46.948;7.410;2024-03-02T00:16:03;6;;;5.5;;
85301;SDS011;75707;46.948;7.410;2024-03-02T00:17:03;5.599999905;;;5.099999905;;
85301;SDS011;75707;46.948;7.410;2024-03-02T00:18:04;5.699999809;;;5.099999905;;
85301;SDS011;75707;46.948;7.410;2024-03-02T00:19:05;6.800000191;;;5.300000191;;
85301;SDS011;75707;46.948;7.410;2024-03-02T00:20:06;5.599999905;;;5.099999905;;
85301;SDS011;75707;46.948;7.410;2024-03-02T00:21:07;5.800000191;;;5.300000191;;
85301;SDS011;75707;46.948;7.410;2024-03-02T00:22:07;5.599999905;;;5;;
85301;SDS011;75707;46.948;7.410;2024-03-02T00:23:08;5.900000095;;;5.300000191;;
85301;SDS011;75707;46.948;7.410;2024-03-02T00:24:12;6.099999905;;;4.900000095;;
85301;SDS011;75707;46.948;7.410;2024-03-02T00:25:09;5.099999905;;;4.5;;
85301;SDS011;75707;46.948;7.410;2024-03-02T00:26:09;4.699999809;;;4.300000191;;
85301;SDS011;75707;46.948;7.410;2024-03-02T00:27:10;5.099999905;;;4.300000191;;
85301;SDS011;75707;46.948;7.410;2024-03-02T00:28:13;5.800000191;;;4.800000191;;
85301;SDS011;75707;46.948;7.410;2024-03-02T00:29:11;4.599999905;;;4.099999905;;
85301;SDS011;75707;46.948;7.410;2024-03-02T00:30:13;4.800000191;;;4.300000191;;
85301;SDS011;75707;46.948;7.410;2024-03-02T00:31:13;4.900000095;;;4.099999905;;
85301;SDS011;75707;46.948;7.410;2024-03-02T00:32:13;4.400000095;;;4;;
85301;SDS011;75707;46.948;7.410;2024-03-02T00:33:14;4.900000095;;;4.400000095;;
85301;SDS011;75707;46.948;7.410;2024-03-02T00:34:15;6.300000191;;;4.300000191;;
85301;SDS011;75707;46.948;7.410;2024-03-02T00:35:15;4.599999905;;;4.199999809;;
85301;SDS011;75707;46.948;7.410;2024-03-02T00:36:18;5.199999809;;;4.300000191;;
85301;SDS011;75707;46.948;7.410;2024-03-02T00:37:17;4.199999809;;;3.900000095;;
85301;SDS011;75707;46.948;7.410;2024-03-02T00:38:50;6.400000095;;;4.199999809;;
85301;SDS011;75707;46.948;7.410;2024-03-02T00:39:49;5.099999905;;;4.300000191;;
85301;SDS011;75707;46.948;7.410;2024-03-02T00:40:50;4.800000191;;;4.400000095;;
85301;SDS011;75707;46.948;7.410;2024-03-02T00:41:51;4.5;;;4;;
85301;SDS011;75707;46.948;7.410;2024-03-02T00:42:51;4.800000191;;;4.199999809;;
85301;SDS011;75707;46.948;7.410;2024-03-02T00:43:57;5;;;4.5;;
85301;SDS011;75707;46.948;7.410;2024-03-02T00:44:53;12.80000019;;;8.800000191;;
85301;SDS011;75707;46.948;7.410;2024-03-02T00:45:54;7.5;;;5.400000095;;
85301;SDS011;75707;46.948;7.410;2024-03-02T00:46:55;4.599999905;;;4.199999809;;
85301;SDS011;75707;46.948;7.410;2024-03-02T00:47:55;4.699999809;;;3.799999952;;
85301;SDS011;75707;46.948;7.410;2024-03-02T00:48:57;4.699999809;;;4.300000191;;
85301;SDS011;75707;46.948;7.410;2024-03-02T00:49:57;4.199999809;;;3.799999952;;
85301;SDS011;75707;46.948;7.410;2024-03-02T00:50:58;4.5;;;4.099999905;;
85301;SDS011;75707;46.948;7.410;2024-03-02T00:51:58;4;;;3.700000048;;
85301;SDS011;75707;46.948;7.410;2024-03-02T00:52:59;5;;;4.099999905;;
85301;SDS011;75707;46.948;7.410;2024-03-02T00:54:00;4.400000095;;;4;;
85301;SDS011;75707;46.948;7.410;2024-03-02T00:55:01;4.599999905;;;4.199999809;;
85301;SDS011;75707;46.948;7.410;2024-03-02T00:56:02;5.699999809;;;4.699999809;;
85301;SDS011;75707;46.948;7.410;2024-03-02T00:57:02;4.5;;;4.099999905;;
85301;SDS011;75707;46.948;7.410;2024-03-02T00:58:03;4.400000095;;;4;;
85301;SDS011;75707;46.948;7.410;2024-03-02T00:59:04;4.5;;;4.099999905;;
85301;SDS011;75707;46.948;7.410;2024-03-02T01:00:05;4.599999905;;;4.199999809;;
85301;SDS011;75707;46.948;7.410;2024-03-02T01:01:05;6;;;5.099999905;;
85301;SDS011;75707;46.948;7.410;2024-03-02T01:02:06;6;;;4.900000095;;
85301;SDS011;75707;46.948;7.410;2024-03-02T01:03:06;4.199999809;;;3.900000095;;
85301;SDS011;75707;46.948;7.410;2024-03-02T01:04:07;4.5;;;4.099999905;;
85301;SDS011;75707;46.948;7.410;2024-03-02T01:05:08;5.699999809;;;4.400000095;;
85301;SDS011;75707;46.948;7.410;2024-03-02T01:06:09;5.300000191;;;4.699999809;;
85301;SDS011;75707;46.948;7.410;2024-03-02T01:07:09;5.300000191;;;4.599999905;;
85301;SDS011;75707;46.948;7.410;2024-03-02T01:08:10;5.5;;;4.5;;
85301;SDS011;75707;46.948;7.410;2024-03-02T01:09:11;4.199999809;;;3.900000095;;
85301;SDS011;75707;46.948;7.410;2024-03-02T01:10:11;5.699999809;;;4.300000191;;
85301;SDS011;75707;46.948;7.410;2024-03-02T01:11:12;5;;;4.400000095;;
85301;SDS011;75707;46.948;7.410;2024-03-02T01:12:13;4.699999809;;;4.300000191;;
85301;SDS011;75707;46.948;7.410;2024-03-02T01:13:13;7.099999905;;;4.800000191;;
85301;SDS011;75707;46.948;7.410;2024-03-02T01:14:14;6.199999809;;;4.400000095;;
85301;SDS011;75707;46.948;7.410;2024-03-02T01:15:15;6.300000191;;;4.300000191;;
85301;SDS011;75707;46.948;7.410;2024-03-02T01:16:15;4.400000095;;;4;;
85301;SDS011;75707;46.948;7.410;2024-03-02T01:17:16;4.900000095;;;4.400000095;;
85301;SDS011;75707;46.948;7.410;2024-03-02T01:18:16;5;;;4.5;;
85301;SDS011;75707;46.948;7.410;2024-03-02T01:19:48;6.099999905;;;4.900000095;;
85301;SDS011;75707;46.948;7.410;2024-03-02T01:20:48;5.199999809;;;4.699999809;;
85301;SDS011;75707;46.948;7.410;2024-03-02T01:21:49;7.300000191;;;4.900000095;;
85301;SDS011;75707;46.948;7.410;2024-03-02T01:22:50;4.599999905;;;4.199999809;;
85301;SDS011;75707;46.948;7.410;2024-03-02T01:23:50;4.5;;;4.099999905;;
85301;SDS011;75707;46.948;7.410;2024-03-02T01:24:51;4.599999905;;;4.099999905;;
85301;SDS011;75707;46.948;7.410;2024-03-02T01:25:52;4.599999905;;;4.199999809;;
85301;SDS011;75707;46.948;7.410;2024-03-02T01:26:52;5.300000191;;;4.5;;
85301;SDS011;75707;46.948;7.410;2024-03-02T01:27:53;4.800000191;;;4.400000095;;
85301;SDS011;75707;46.948;7.410;2024-03-02T01:28:54;4.300000191;;;3.900000095;;
85301;SDS011;75707;46.948;7.410;2024-03-02T01:29:54;5.099999905;;;4.300000191;;
85301;SDS011;75707;46.948;7.410;2024-03-02T01:30:55;4.599999905;;;4.199999809;;
85301;SDS011;75707;46.948;7.410;2024-03-02T01:31:55;4.300000191;;;3.900000095;;
85301;SDS011;75707;46.948;7.410;2024-03-02T01:32:56;6.199999809;;;4.099999905;;
85301;SDS011;75707;46.948;7.410;2024-03-02T01:33:57;6.699999809;;;4.5;;
85301;SDS011;75707;46.948;7.410;2024-03-02T01:34:57;4.699999809;;;4.300000191;;
85301;SDS011;75707;46.948;7.410;2024-03-02T01:35:58;5;;;4.5;;
85301;SDS011;75707;46.948;7.410;2024-03-02T01:36:59;4.900000095;;;4.400000095;;
85301;SDS011;75707;46.948;7.410;2024-03-02T01:38:00;5.199999809;;;4.400000095;;
85301;SDS011;75707;46.948;7.410;2024-03-02T01:39:00;4.599999905;;;4.199999809;;
85301;SDS011;75707;46.948;7.410;2024-03-02T01:40:01;6.900000095;;;4.300000191;;
85301;SDS011;75707;46.948;7.410;2024-03-02T01:41:02;6.199999809;;;4.800000191;;
85301;SDS011;75707;46.948;7.410;2024-03-02T01:42:02;5.199999809;;;4.300000191;;
85301;SDS011;75707;46.948;7.410;2024-03-02T01:43:03;5.099999905;;;4.099999905;;
85301;SDS011;75707;46.948;7.410;2024-03-02T01:44:03;4.699999809;;;4.300000191;;
85301;SDS011;75707;46.948;7.410;2024-03-02T01:45:04;6.300000191;;;4.199999809;;
85301;SDS011;75707;46.948;7.410;2024-03-02T01:46:05;6.099999905;;;4.5;;
85301;SDS011;75707;46.948;7.410;2024-03-02T01:47:05;5.400000095;;;4.099999905;;
85301;SDS011;75707;46.948;7.410;2024-03-02T01:48:06;4.400000095;;;4;;
85301;SDS011;75707;46.948;7.410;2024-03-02T01:49:06;4.599999905;;;4.099999905;;
85301;SDS011;75707;46.948;7.410;2024-03-02T01:50:07;4.599999905;;;4.199999809;;
85301;SDS011;75707;46.948;7.410;2024-03-02T01:51:08;8;;;4.300000191;;
85301;SDS011;75707;46.948;7.410;2024-03-02T01:52:08;4.300000191;;;3.900000095;;
85301;SDS011;75707;46.948;7.410;2024-03-02T01:53:09;4.599999905;;;4.199999809;;
85301;SDS011;75707;46.948;7.410;2024-03-02T01:54:10;5.599999905;;;4.300000191;;
85301;SDS011;75707;46.948;7.410;2024-03-02T01:55:10;5.099999905;;;4.199999809;;
85301;SDS011;75707;46.948;7.410;2024-03-02T01:56:11;4.5;;;4.099999905;;
85301;SDS011;75707;46.948;7.410;2024-03-02T01:57:12;4.400000095;;;4;;
85301;SDS011;75707;46.948;7.410;2024-03-02T01:58:12;4.699999809;;;4.199999809;;
85301;SDS011;75707;46.948;7.410;2024-03-02T01:59:13;4.900000095;;;4.5;;
85301;SDS011;75707;46.948;7.410;2024-03-02T02:00:14;6.800000191;;;4.400000095;;
85301;SDS011;75707;46.948;7.410;2024-03-02T02:01:15;5.599999905;;;4.400000095;;
85301;SDS011;75707;46.948;7.410;2024-03-02T02:02:15;4.599999905;;;4.199999809;;
85301;SDS011;75707;46.948;7.410;2024-03-02T02:03:16;4.900000095;;;4.199999809;;
85301;SDS011;75707;46.948;7.410;2024-03-02T02:04:17;5.599999905;;;4.300000191;;
85301;SDS011;75707;46.948;7.410;2024-03-02T02:05:48;5.900000095;;;4.400000095;;
85301;SDS011;75707;46.948;7.410;2024-03-02T02:06:49;5.199999809;;;4.699999809;;
85301;SDS011;75707;46.948;7.410;2024-03-02T02:07:49;5.900000095;;;4.599999905;;
85301;SDS011;75707;46.948;7.410;2024-03-02T02:08:50;5.199999809;;;4.699999809;;
85301;SDS011;75707;46.948;7.410;2024-03-02T02:09:51;5.5;;;4.5;;
85301;SDS011;75707;46.948;7.410;2024-03-02T02:10:51;4.199999809;;;3.799999952;;
85301;SDS011;75707;46.948;7.410;2024-03-02T02:11:52;5.699999809;;;4.199999809;;
85301;SDS011;75707;46.948;7.410;2024-03-02T02:12:53;4.300000191;;;4;;
85301;SDS011;75707;46.948;7.410;2024-03-02T02:13:54;4.400000095;;;4.099999905;;
85301;SDS011;75707;46.948;7.410;2024-03-02T02:14:55;6;;;4.5;;
85301;SDS011;75707;46.948;7.410;2024-03-02T02:15:58;4.5;;;4.099999905;;
85301;SDS011;75707;46.948;7.410;2024-03-02T02:16:56;4.699999809;;;4.199999809;;
85301;SDS011;75707;46.948;7.410;2024-03-02T02:17:57;4.300000191;;;4;;
85301;SDS011;75707;46.948;7.410;2024-03-02T02:18:58;4.5;;;4.099999905;;
85301;SDS011;75707;46.948;7.410;2024-03-02T02:19:58;4.300000191;;;4;;
85301;SDS011;75707;46.948;7.410;2024-03-02T02:20:59;4.599999905;;;4.199999809;;
85301;SDS011;75707;46.948;7.410;2024-03-02T02:21:59;4.800000191;;;4.300000191;;
85301;SDS011;75707;46.948;7.410;2024-03-02T02:23:00;4.699999809;;;4;;
85301;SDS011;75707;46.948;7.410;2024-03-02T02:24:01;4.400000095;;;4;;
85301;SDS011;75707;46.948;7.410;2024-03-02T02:25:01;4.699999809;;;4.300000191;;
85301;SDS011;75707;46.948;7.410;2024-03-02T02:26:02;4.5;;;4.099999905;;
85301;SDS011;75707;46.948;7.410;2024-03-02T02:27:02;4.599999905;;;4.199999809;;
85301;SDS011;75707;46.948;7.410;2024-03-02T02:28:03;4.900000095;;;4.400000095;;
85301;SDS011;75707;46.948;7.410;2024-03-02T02:29:04;5;;;3.900000095;;
85301;SDS011;75707;46.948;7.410;2024-03-02T02:30:05;4.699999809;;;4.300000191;;
85301;SDS011;75707;46.948;7.410;2024-03-02T02:31:05;7.800000191;;;5.099999905;;
85301;SDS011;75707;46.948;7.410;2024-03-02T02:32:06;11.60000038;;;5.599999905;;
85301;SDS011;75707;46.948;7.410;2024-03-02T02:33:07;5.5;;;5;;
85301;SDS011;75707;46.948;7.410;2024-03-02T02:35:09;6.199999809;;;5.5;;
85301;SDS011;75707;46.948;7.410;2024-03-02T02:36:09;6;;;5.400000095;;
85301;SDS011;75707;46.948;7.410;2024-03-02T02:37:10;5.599999905;;;5.199999809;;
85301;SDS011;75707;46.948;7.410;2024-03-02T02:38:10;5.300000191;;;4.800000191;;
85301;SDS011;75707;46.948;7.410;2024-03-02T02:40:12;5.5;;;5;;
85301;SDS011;75707;46.948;7.410;2024-03-02T02:41:12;5;;;4.599999905;;
85301;SDS011;75707;46.948;7.410;2024-03-02T02:42:13;5.800000191;;;4.400000095;;
85301;SDS011;75707;46.948;7.410;2024-03-02T02:43:13;5.400000095;;;4.900000095;;
85301;SDS011;75707;46.948;7.410;2024-03-02T02:44:14;6;;;4.699999809;;
85301;SDS011;75707;46.948;7.410;2024-03-02T02:45:15;5;;;4.5;;
85301;SDS011;75707;46.948;7.410;2024-03-02T02:46:15;5.099999905;;;4.599999905;;
85301;SDS011;75707;46.948;7.410;2024-03-02T02:47:16;5.099999905;;;4.599999905;;
85301;SDS011;75707;46.948;7.410;2024-03-02T02:48:47;5.699999809;;;5.300000191;;
85301;SDS011;75707;46.948;7.410;2024-03-02T02:49:48;5.400000095;;;4.900000095;;
85301;SDS011;75707;46.948;7.410;2024-03-02T02:50:49;4.900000095;;;4.5;;
85301;SDS011;75707;46.948;7.410;2024-03-02T02:51:49;5.300000191;;;4.900000095;;
85301;SDS011;75707;46.948;7.410;2024-03-02T02:52:50;4.699999809;;;4.300000191;;
85301;SDS011;75707;46.948;7.410;2024-03-02T02:53:50;5;;;4.5;;
85301;SDS011;75707;46.948;7.410;2024-03-02T02:54:51;4.199999809;;;3.900000095;;
85301;SDS011;75707;46.948;7.410;2024-03-02T02:55:52;5.099999905;;;4.099999905;;
85301;SDS011;75707;46.948;7.410;2024-03-02T02:56:52;3.5;;;3.200000048;;
85301;SDS011;75707;46.948;7.410;2024-03-02T02:57:53;3.700000048;;;3.400000095;;
85301;SDS011;75707;46.948;7.410;2024-03-02T02:58:53;4.699999809;;;4.199999809;;
85301;SDS011;75707;46.948;7.410;2024-03-02T02:59:54;4;;;3.700000048;;
85301;SDS011;75707;46.948;7.410;2024-03-02T03:00:55;3.900000095;;;3.599999905;;
85301;SDS011;75707;46.948;7.410;2024-03-02T03:01:55;4.699999809;;;4.199999809;;
85301;SDS011;75707;46.948;7.410;2024-03-02T03:02:56;4.599999905;;;4.199999809;;
85301;SDS011;75707;46.948;7.410;2024-03-02T03:03:57;4.800000191;;;4.199999809;;
85301;SDS011;75707;46.948;7.410;2024-03-02T03:04:57;4.199999809;;;3.799999952;;
85301;SDS011;75707;46.948;7.410;2024-03-02T03:05:58;4.800000191;;;3.799999952;;
85301;SDS011;75707;46.948;7.410;2024-03-02T03:06:59;4.199999809;;;3.799999952;;
85301;SDS011;75707;46.948;7.410;2024-03-02T03:07:59;3.599999905;;;3.299999952;;
85301;SDS011;75707;46.948;7.410;2024-03-02T03:09:00;4;;;3.599999905;;
85301;SDS011;75707;46.948;7.410;2024-03-02T03:10:00;3.799999952;;;3.400000095;;
85301;SDS011;75707;46.948;7.410;2024-03-02T03:11:01;4.199999809;;;3.799999952;;
85301;SDS011;75707;46.948;7.410;2024-03-02T03:12:02;4.599999905;;;4.099999905;;
85301;SDS011;75707;46.948;7.410;2024-03-02T03:13:02;4.699999809;;;4.300000191;;
85301;SDS011;75707;46.948;7.410;2024-03-02T03:14:03;4.599999905;;;4.199999809;;
85301;SDS011;75707;46.948;7.410;2024-03-02T03:15:04;4.900000095;;;4.400000095;;
85301;SDS011;75707;46.948;7.410;2024-03-02T03:16:04;6.599999905;;;4.800000191;;
85301;SDS011;75707;46.948;7.410;2024-03-02T03:17:05;4.599999905;;;4.199999809;;
85301;SDS011;75707;46.948;7.410;2024-03-02T03:18:06;6;;;5.400000095;;
85301;SDS011;75707;46.948;7.410;2024-03-02T03:19:06;6.199999809;;;5.400000095;;
85301;SDS011;75707;46.948;7.410;2024-03-02T03:20:07;6.199999809;;;5.599999905;;
85301;SDS011;75707;46.948;7.410;2024-03-02T03:21:08;6.5;;;5.900000095;;
85301;SDS011;75707;46.948;7.410;2024-03-02T03:22:08;7;;;6.300000191;;
85301;SDS011;75707;46.948;7.410;2024-03-02T03:23:09;7;;;6.199999809;;
85301;SDS011;75707;46.948;7.410;2024-03-02T03:24:10;6.400000095;;;5.900000095;;
85301;SDS011;75707;46.948;7.410;2024-03-02T03:25:11;7.599999905;;;6.900000095;;
85301;SDS011;75707;46.948;7.410;2024-03-02T03:26:12;6;;;5.5;;
85301;SDS011;75707;46.948;7.410;2024-03-02T03:27:13;6.099999905;;;5.599999905;;
85301;SDS011;75707;46.948;7.410;2024-03-02T03:28:13;6.5;;;6;;
85301;SDS011;75707;46.948;7.410;2024-03-02T03:29:14;6.400000095;;;5.800000191;;
85301;SDS011;75707;46.948;7.410;2024-03-02T03:30:15;6.300000191;;;5.699999809;;
85301;SDS011;75707;46.948;7.410;2024-03-02T03:31:16;5.400000095;;;5;;
85301;SDS011;75707;46.948;7.410;2024-03-02T03:32:47;5;;;4.599999905;;
85301;SDS011;75707;46.948;7.410;2024-03-02T03:33:48;5.099999905;;;4.699999809;;
85301;SDS011;75707;46.948;7.410;2024-03-02T03:34:48;4.699999809;;;4.400000095;;
85301;SDS011;75707;46.948;7.410;2024-03-02T03:35:49;5.199999809;;;4.800000191;;
85301;SDS011;75707;46.948;7.410;2024-03-02T03:36:50;4.599999905;;;4.199999809;;
85301;SDS011;75707;46.948;7.410;2024-03-02T03:37:50;4.300000191;;;3.900000095;;
85301;SDS011;75707;46.948;7.410;2024-03-02T03:38:51;4.199999809;;;3.900000095;;
85301;SDS011;75707;46.948;7.410;2024-03-02T03:39:52;4.699999809;;;4;;
85301;SDS011;75707;46.948;7.410;2024-03-02T03:40:52;4.199999809;;;3.799999952;;
85301;SDS011;75707;46.948;7.410;2024-03-02T03:41:53;4.400000095;;;3.900000095;;
85301;SDS011;75707;46.948;7.410;2024-03-02T03:42:54;4.5;;;4.199999809;;
85301;SDS011;75707;46.948;7.410;2024-03-02T03:43:55;4.800000191;;;4.300000191;;
85301;SDS011;75707;46.948;7.410;2024-03-02T03:44:55;4.199999809;;;3.799999952;;
85301;SDS011;75707;46.948;7.410;2024-03-02T03:45:56;4.400000095;;;4;;
85301;SDS011;75707;46.948;7.410;2024-03-02T03:47:58;4.800000191;;;4.300000191;;
85301;SDS011;75707;46.948;7.410;2024-03-02T03:48:59;4.599999905;;;4.199999809;;
85301;SDS011;75707;46.948;7.410;2024-03-02T03:49:59;4.699999809;;;4.300000191;;
85301;SDS011;75707;46.948;7.410;2024-03-02T03:51:00;4.099999905;;;3.700000048;;
85301;SDS011;75707;46.948;7.410;2024-03-02T03:52:00;4.599999905;;;4;;
85301;SDS011;75707;46.948;7.410;2024-03-02T03:53:01;4.300000191;;;3.900000095;;
85301;SDS011;75707;46.948;7.410;2024-03-02T03:54:02;5;;;4.199999809;;
85301;SDS011;75707;46.948;7.410;2024-03-02T03:55:03;5.300000191;;;4.300000191;;
85301;SDS011;75707;46.948;7.410;2024-03-02T03:56:03;4.5;;;4.099999905;;
85301;SDS011;75707;46.948;7.410;2024-03-02T03:57:04;4.300000191;;;4;;
85301;SDS011;75707;46.948;7.410;2024-03-02T03:58:04;4.099999905;;;3.700000048;;
85301;SDS011;75707;46.948;7.410;2024-03-02T03:59:05;4.5;;;4.099999905;;
85301;SDS011;75707;46.948;7.410;2024-03-02T04:00:06;5.400000095;;;4.099999905;;
85301;SDS011;75707;46.948;7.410;2024-03-02T04:01:06;4.599999905;;;4.199999809;;
85301;SDS011;75707;46.948;7.410;2024-03-02T04:02:07;4.5;;;4.099999905;;
85301;SDS011;75707;46.948;7.410;2024-03-02T04:03:07;4.699999809;;;4.300000191;;
85301;SDS011;75707;46.948;7.410;2024-03-02T04:04:08;4.900000095;;;4.400000095;;
85301;SDS011;75707;46.948;7.410;2024-03-02T04:05:09;4.300000191;;;3.900000095;;
85301;SDS011;75707;46.948;7.410;2024-03-02T04:06:09;4.5;;;4.099999905;;
85301;SDS011;75707;46.948;7.410;2024-03-02T04:08:11;4.199999809;;;3.900000095;;
85301;SDS011;75707;46.948;7.410;2024-03-02T04:09:11;4.400000095;;;4;;
85301;SDS011;75707;46.948;7.410;2024-03-02T04:10:12;4.400000095;;;3.799999952;;
85301;SDS011;75707;46.948;7.410;2024-03-02T04:11:13;5;;;4.300000191;;
85301;SDS011;75707;46.948;7.410;2024-03-02T04:12:14;4.5;;;4.099999905;;
85301;SDS011;75707;46.948;7.410;2024-03-02T04:13:14;4;;;3.700000048;;
85301;SDS011;75707;46.948;7.410;2024-03-02T04:14:46;6.5;;;4.099999905;;
85301;SDS011;75707;46.948;7.410;2024-03-02T04:15:46;4.199999809;;;3.799999952;;
85301;SDS011;75707;46.948;7.410;2024-03-02T04:17:48;4.199999809;;;3.900000095;;
85301;SDS011;75707;46.948;7.410;2024-03-02T04:18:48;5;;;3.900000095;;
85301;SDS011;75707;46.948;7.410;2024-03-02T04:19:49;4.199999809;;;3.700000048;;
85301;SDS011;75707;46.948;7.410;2024-03-02T04:20:50;4.699999809;;;4.300000191;;
85301;SDS011;75707;46.948;7.410;2024-03-02T04:21:51;4.800000191;;;4.300000191;;
85301;SDS011;75707;46.948;7.410;2024-03-02T04:22:52;5.199999809;;;4.699999809;;
85301;SDS011;75707;46.948;7.410;2024-03-02T04:23:52;4.599999905;;;4.199999809;;
85301;SDS011;75707;46.948;7.410;2024-03-02T04:24:53;4.699999809;;;4.300000191;;
85301;SDS011;75707;46.948;7.410;2024-03-02T04:25:53;4.900000095;;;4.5;;
85301;SDS011;75707;46.948;7.410;2024-03-02T04:26:54;4.599999905;;;4.199999809;;
85301;SDS011;75707;46.948;7.410;2024-03-02T04:27:55;4.800000191;;;4.400000095;;
85301;SDS011;75707;46.948;7.410;2024-03-02T04:28:56;5.5;;;4.199999809;;
85301;SDS011;75707;46.948;7.410;2024-03-02T04:29:57;4.5;;;4.099999905;;
85301;SDS011;75707;46.948;7.410;2024-03-02T04:30:57;5;;;4.5;;
85301;SDS011;75707;46.948;7.410;2024-03-02T04:31:58;4.699999809;;;4.300000191;;
85301;SDS011;75707;46.948;7.410;2024-03-02T04:32:58;5.099999905;;;4.699999809;;
85301;SDS011;75707;46.948;7.410;2024-03-02T04:33:59;5.099999905;;;4.599999905;;
85301;SDS011;75707;46.948;7.410;2024-03-02T04:35:00;4.5;;;4.099999905;;
85301;SDS011;75707;46.948;7.410;2024-03-02T04:36:01;4.900000095;;;3.900000095;;
85301;SDS011;75707;46.948;7.410;2024-03-02T04:37:01;4.400000095;;;4.099999905;;
85301;SDS011;75707;46.948;7.410;2024-03-02T04:38:02;4.5;;;4.099999905;;
85301;SDS011;75707;46.948;7.410;2024-03-02T04:39:03;4.599999905;;;4.199999809;;
85301;SDS011;75707;46.948;7.410;2024-03-02T04:40:04;3.700000048;;;3.400000095;;
85301;SDS011;75707;46.948;7.410;2024-03-02T04:41:04;3.900000095;;;3.599999905;;
85301;SDS011;75707;46.948;7.410;2024-03-02T04:42:05;4.5;;;4.099999905;;
85301;SDS011;75707;46.948;7.410;2024-03-02T04:43:05;4.300000191;;;3.900000095;;
85301;SDS011;75707;46.948;7.410;2024-03-02T04:44:06;4.599999905;;;3.599999905;;
85301;SDS011;75707;46.948;7.410;2024-03-02T04:45:07;4;;;3.599999905;;
85301;SDS011;75707;46.948;7.410;2024-03-02T04:46:07;5.800000191;;;4;;
85301;SDS011;75707;46.948;7.410;2024-03-02T04:47:08;4.199999809;;;3.799999952;;
85301;SDS011;75707;46.948;7.410;2024-03-02T04:48:08;5.099999905;;;3.700000048;;
85301;SDS011;75707;46.948;7.410;2024-03-02T04:49:09;4.099999905;;;3.799999952;;
85301;SDS011;75707;46.948;7.410;2024-03-02T04:50:10;4.5;;;3.599999905;;
85301;SDS011;75707;46.948;7.410;2024-03-02T04:51:10;4.099999905;;;3.799999952;;
85301;SDS011;75707;46.948;7.410;2024-03-02T04:52:11;4.300000191;;;3.900000095;;
85301;SDS011;75707;46.948;7.410;2024-03-02T04:53:12;4.599999905;;;4.199999809;;
85301;SDS011;75707;46.948;7.410;2024-03-02T04:54:13;4.5;;;4.099999905;;
85301;SDS011;75707;46.948;7.410;2024-03-02T04:55:13;5;;;4.599999905;;
85301;SDS011;75707;46.948;7.410;2024-03-02T04:56:14;5.5;;;4.900000095;;
85301;SDS011;75707;46.948;7.410;2024-03-02T04:57:45;9;;;5.5;;
85301;SDS011;75707;46.948;7.410;2024-03-02T04:58:46;6.400000095;;;5.300000191;;
85301;SDS011;75707;46.948;7.410;2024-03-02T04:59:47;6.800000191;;;5;;
85301;SDS011;75707;46.948;7.410;2024-03-02T05:00:47;9.899999619;;;5.199999809;;
85301;SDS011;75707;46.948;7.410;2024-03-02T05:01:48;13.69999981;;;5.599999905;;
85301;SDS011;75707;46.948;7.410;2024-03-02T05:02:48;13.30000019;;;5.599999905;;
85301;SDS011;75707;46.948;7.410;2024-03-02T05:03:49;11.10000038;;;5.800000191;;
85301;SDS011;75707;46.948;7.410;2024-03-02T05:04:50;5.800000191;;;5.199999809;;
85301;SDS011;75707;46.948;7.410;2024-03-02T05:05:50;11.39999962;;;6;;
85301;SDS011;75707;46.948;7.410;2024-03-02T05:06:51;12;;;5.400000095;;
85301;SDS011;75707;46.948;7.410;2024-03-02T05:07:52;12.30000019;;;4.900000095;;
85301;SDS011;75707;46.948;7.410;2024-03-02T05:08:52;8.800000191;;;5.300000191;;
85301;SDS011;75707;46.948;7.410;2024-03-02T05:09:53;7.699999809;;;5.199999809;;
85301;SDS011;75707;46.948;7.410;2024-03-02T05:10:54;5.699999809;;;5.099999905;;
85301;SDS011;75707;46.948;7.410;2024-03-02T05:11:54;5.400000095;;;4.900000095;;
85301;SDS011;75707;46.948;7.410;2024-03-02T05:12:55;5.699999809;;;5;;
85301;SDS011;75707;46.948;7.410;2024-03-02T05:13:55;5.199999809;;;4.699999809;;
85301;SDS011;75707;46.948;7.410;2024-03-02T05:14:56;5.5;;;5;;
85301;SDS011;75707;46.948;7.410;2024-03-02T05:15:57;5.800000191;;;5.199999809;;
85301;SDS011;75707;46.948;7.410;2024-03-02T05:16:57;5.599999905;;;5.099999905;;
85301;SDS011;75707;46.948;7.410;2024-03-02T05:17:58;5.400000095;;;4.599999905;;
85301;SDS011;75707;46.948;7.410;2024-03-02T05:18:58;6.400000095;;;5;;
85301;SDS011;75707;46.948;7.410;2024-03-02T05:19:59;5.199999809;;;4.800000191;;
85301;SDS011;75707;46.948;7.410;2024-03-02T05:21:00;5.300000191;;;4.900000095;;
85301;SDS011;75707;46.948;7.410;2024-03-02T05:22:01;5.099999905;;;4.599999905;;
85301;SDS011;75707;46.948;7.410;2024-03-02T05:23:01;5.800000191;;;5.199999809;;
85301;SDS011;75707;46.948;7.410;2024-03-02T05:24:02;5.400000095;;;4.900000095;;